KAJR

Details ICAO KAJR
Name HABERSHAM CO
Region United States
Timezone America/New_York (UTC-5.0)
Plans Departing 4
Arriving 6
Stats Elevation 1,447 ft / 441 m (AMSL)
Location 34.499893° -83.556691°
Runways 1
Magnetic Variation 5.817° W
Sunrise 2017-12-16 12:35:44 UTC / 2017-12-16 07:35:44 Local
Sunset 2017-12-16 22:26:58 UTC / 2017-12-16 17:26:58 Local
Advertisement - Login to hide

Runways

ID Width Length Bearing (true) Bearing (mag) Surface Threshold Offset Overrun Length
06 100 ft / 30 m 5,497 ft / 1,675 m 57.18° 63.00° Asphalt 1,390 ft / 424 m 0 ft / 0 m
24 100 ft / 30 m 5,497 ft / 1,675 m 237.19° 243.01° Asphalt 0 ft / 0 m 0 ft / 0 m

Map

Weather


0- 5 10 15 20 25 30 35+ Temperature / ° C

Clouds and Precipitation
Forecast for 2017-12-16 12:00 UTC. Updated 2 hours ago

Ground ~20,000 ft ~40,000 ft Winds

METAR

KAJR 160915Z AUTO 00000KT 7SM CLR M02/M07 A3017 RMK AO2 T10171066

TAF

Not found

Frequencies

Unicom 122.70 MHz CTAF/UNICOM
Warning: Do not use this data for real-world aviation or navigation. No guarantee of current accuracy is given.